Alor Star, Malaysia

10:19 AM MYT on September 23, 2014 (GMT +0800)
Sultan Abdul Halim | Change Station
CLOSE
Current Station
Airport
Location: Sultan Abdul Halim,
Elevation: 16 ft
Nearby Weather Stations

Elev 16 ft 6.19 °N, 100.40 °E | Updated 19 minutes ago

Mostly Cloudy
Mostly Cloudy
82 °F
Feels Like 92 °F
N
2
Wind Variable Wind from SE

Today
High -- | Low -- °F
--% Chance of Precip.
Yesterday
High -- | Low -- °F
Precip. -- in
7:07 AM 7:14 PM
Waning Crescent, 1% visible
Pressure 29.89 in
Visibility 5.0 miles
Clouds Few 2000 ft
Mostly Cloudy 14000 ft
Heat Index 92 °F
Dew Point 79 °F
Humidity 89%
Rainfall 0.00 in
Snow Depth Not available.
UV 4 out of 12
Pollen Not available.
Air Quality Not available.
Flu Activity Not available.
METAR WMKA 230200Z 13002KT 8000 FEW020 BKN140 28/26 Q1012

More Conditions Fewer Conditions

Pressure 29.89 in
Visibility 5.0 miles
Clouds Few 2000 ft
Mostly Cloudy 14000 ft
Heat Index 92 °F
Dew Point 79 °F
Humidity 89%
Rainfall 0.00 in
Snow Depth Not available.
UV 4 out of 12
Pollen Not available.
Air Quality Not available.
Flu Activity Not available.
METAR WMKA 230200Z 13002KT 8000 FEW020 BKN140 28/26 Q1012

More Conditions Fewer Conditions

10-Day Weather Forecast

Almanac

Astronomy

Sep. 23, 2014 Rise Set
Actual Time 7:07 AM MYT 7:14 PM MYT
Civil Twilight 6:46 AM MYT 7:34 PM MYT
Nautical Twilight 6:22 AM MYT 7:59 PM MYT
Astronomical Twilight 5:58 AM MYT 8:23 PM MYT
Moon 6:10 AM MYT 6:33 PM MYT
Length of Visible Light 12h 48m
Length of Day
12h 06m
Tomorrow will be 0m 20s shorter.
Waning Crescent, 1% of the Moon is Illuminated
Sep 22
Waning Crescent
Sep 24
New
Oct 1
First Quarter
Oct 8
Full
Oct 15
Last Quarter

Yesterday's Extremes

Country Highs Country Lows

Community

WunderPhotos

Upload Photos

1,755,587 photos uploaded!

Nearby

Snow Depth

Not available.

Earthquake Activity

City Distance Mag. Time & Date
No recent earthquake activity has been reported nearby.
Minimum magnitude displayed is 2.5.

Coastal Water Temperatures

Place Temperature
No Stations Reporting

Nearby Weather Stations